Time;durP1;ratioP1;P1;durP2;ratioP2;P2;SDS_P1;SDS_P2;PMS_P1;PMS_P2;Temp;Humidity;BMP_temperature;BMP_pressure;BME280_temperature;BME280_humidity;BME280_pressure;Samples;Min_cycle;Max_cycle;Signal;HPM_P1;HPM_P2
2022/03/21 00:01:10;;;;;;;43.72;26.13;;;3.40;99.90;;;;;;4991152;28;20026;-83
2022/03/21 00:03:36;;;;;;;43.13;25.48;;;3.40;99.90;;;;;;4986603;28;20395;-83
2022/03/21 00:06:02;;;;;;;47.10;28.98;;;3.40;99.90;;;;;;5006442;28;20112;-83
2022/03/21 00:08:29;;;;;;;48.88;28.00;;;3.40;99.90;;;;;;4989715;28;20078;-83
2022/03/21 00:10:56;;;;;;;49.38;27.83;;;3.40;99.90;;;;;;5009592;28;20033;-83
2022/03/21 00:13:22;;;;;;;44.15;27.17;;;3.40;99.90;;;;;;4992300;28;20074;-83
2022/03/21 00:15:50;;;;;;;45.97;28.25;;;3.40;99.90;;;;;;4978355;28;20073;-83
2022/03/21 00:18:16;;;;;;;41.05;24.58;;;3.40;99.90;;;;;;4973040;28;20072;-83
2022/03/21 00:20:44;;;;;;;50.25;25.58;;;3.40;99.90;;;;;;4976195;28;20049;-83
2022/03/21 00:23:10;;;;;;;41.85;24.33;;;3.40;99.90;;;;;;4991305;28;20044;-83
2022/03/21 00:25:37;;;;;;;33.75;21.52;;;3.40;99.90;;;;;;5007581;28;20041;-83
2022/03/21 00:28:03;;;;;;;41.83;24.65;;;3.30;99.90;;;;;;4991288;28;20034;-83
2022/03/21 00:30:29;;;;;;;30.35;19.10;;;3.30;99.90;;;;;;5007200;28;20117;-83
2022/03/21 00:32:55;;;;;;;39.15;23.15;;;3.30;99.90;;;;;;5004977;28;20045;-83
2022/03/21 00:35:21;;;;;;;42.20;25.52;;;3.20;99.90;;;;;;4995932;28;20046;-83
2022/03/21 00:37:48;;;;;;;40.97;25.33;;;3.20;99.90;;;;;;4992463;28;20103;-83
2022/03/21 00:40:16;;;;;;;39.10;23.15;;;3.20;99.90;;;;;;4988766;28;20418;-83
2022/03/21 00:42:43;;;;;;;37.28;22.52;;;3.20;99.90;;;;;;4988382;28;20580;-83
2022/03/21 00:45:12;;;;;;;37.10;22.48;;;3.10;99.90;;;;;;4990148;28;20037;-83
2022/03/21 00:47:38;;;;;;;41.50;24.65;;;3.10;99.90;;;;;;4996436;28;20045;-83
2022/03/21 00:50:06;;;;;;;41.17;23.65;;;3.10;99.90;;;;;;5008457;28;20079;-82
2022/03/21 00:52:32;;;;;;;43.22;23.58;;;3.10;99.90;;;;;;4967650;28;20077;-83
2022/03/21 00:54:58;;;;;;;39.63;23.77;;;3.10;99.90;;;;;;5007092;28;20061;-83
2022/03/21 00:57:24;;;;;;;43.53;25.77;;;3.10;99.90;;;;;;4983010;28;20092;-83
2022/03/21 00:59:50;;;;;;;40.70;23.98;;;3.00;99.90;;;;;;5015274;28;20033;-83
2022/03/21 01:02:15;;;;;;;44.00;25.05;;;3.00;99.90;;;;;;5002788;28;20030;-84
2022/03/21 01:04:42;;;;;;;37.58;22.13;;;3.00;99.90;;;;;;4992236;28;20030;-83
2022/03/21 01:07:08;;;;;;;40.83;23.75;;;3.00;99.90;;;;;;5009566;28;20495;-83
2022/03/21 01:09:33;;;;;;;42.05;25.67;;;3.00;99.90;;;;;;4998622;28;20049;-83
2022/03/21 01:12:03;;;;;;;45.30;25.90;;;3.00;99.90;;;;;;4996948;28;20045;-83
2022/03/21 01:14:31;;;;;;;42.30;25.58;;;3.00;99.90;;;;;;5014541;28;20370;-83
2022/03/21 01:16:57;;;;;;;45.88;27.30;;;3.00;99.90;;;;;;5012501;28;20049;-83
2022/03/21 01:19:23;;;;;;;45.60;26.13;;;3.00;99.90;;;;;;4977380;28;20160;-83
2022/03/21 01:21:49;;;;;;;47.40;27.75;;;3.00;99.90;;;;;;4992497;28;20041;-83
2022/03/21 01:24:15;;;;;;;44.72;25.27;;;3.00;99.90;;;;;;4993409;28;20038;-83
2022/03/21 01:26:41;;;;;;;37.65;22.58;;;3.00;99.90;;;;;;4978648;28;20049;-83
2022/03/21 01:29:06;;;;;;;46.42;26.98;;;3.00;99.90;;;;;;4992427;28;20038;-83
2022/03/21 01:31:32;;;;;;;46.78;27.20;;;2.90;99.90;;;;;;4993775;28;20050;-85
2022/03/21 01:33:58;;;;;;;48.20;27.67;;;2.90;99.90;;;;;;4994299;28;20786;-83
2022/03/21 01:36:24;;;;;;;44.17;25.50;;;2.90;99.90;;;;;;4998028;28;20042;-83
2022/03/21 01:38:49;;;;;;;49.88;26.00;;;2.90;99.90;;;;;;5010842;28;20052;-83
2022/03/21 01:41:15;;;;;;;42.15;24.25;;;2.90;99.90;;;;;;5012112;28;20352;-83
2022/03/21 01:44:01;;;;;;;46.20;25.98;;;2.90;99.90;;;;;;4978828;28;20037;-83
2022/03/21 01:46:28;;;;;;;48.25;27.30;;;2.90;99.90;;;;;;5000206;28;20033;-83
2022/03/21 01:48:54;;;;;;;44.10;25.38;;;2.90;99.90;;;;;;5001118;28;20539;-83
2022/03/21 01:51:19;;;;;;;43.83;26.50;;;2.90;99.90;;;;;;4997693;28;20153;-83
2022/03/21 01:56:30;;;;;;;41.50;25.25;;;2.90;99.90;;;;;;5009596;28;20144;-83
2022/03/21 01:58:56;;;;;;;44.80;25.38;;;2.90;99.90;;;;;;4993666;28;20041;-83
2022/03/21 02:01:22;;;;;;;49.35;27.48;;;2.90;99.90;;;;;;4979560;28;20046;-83
2022/03/21 02:03:48;;;;;;;47.65;27.00;;;2.90;99.90;;;;;;4996901;28;20031;-83
2022/03/21 02:06:14;;;;;;;49.35;28.38;;;2.90;99.90;;;;;;4997505;28;20115;-83
2022/03/21 02:08:40;;;;;;;46.55;27.20;;;2.90;99.90;;;;;;4990647;28;20049;-83
2022/03/21 02:11:06;;;;;;;57.50;30.48;;;2.90;99.90;;;;;;4991344;28;20069;-84
2022/03/21 02:13:34;;;;;;;52.00;28.90;;;2.90;99.90;;;;;;5003158;28;20072;-83
2022/03/21 02:16:00;;;;;;;49.55;26.73;;;2.90;99.90;;;;;;5000048;28;20129;-83
2022/03/21 02:18:27;;;;;;;58.75;30.88;;;2.90;99.90;;;;;;5009723;28;20129;-83
2022/03/21 02:20:54;;;;;;;48.55;26.67;;;2.90;99.90;;;;;;5015314;28;20033;-83
2022/03/21 02:23:38;;;;;;;53.97;29.17;;;2.90;99.90;;;;;;5006395;28;20045;-83
2022/03/21 02:26:10;;;;;;;56.05;30.55;;;2.90;99.90;;;;;;5011628;28;20049;-83
2022/03/21 02:28:37;;;;;;;56.13;29.67;;;3.00;99.90;;;;;;4994448;28;20062;-83
2022/03/21 02:31:04;;;;;;;54.33;29.17;;;3.00;99.90;;;;;;5016599;28;20459;-83
2022/03/21 02:33:29;;;;;;;63.60;32.08;;;3.00;99.90;;;;;;5019854;28;20119;-83
2022/03/21 02:35:56;;;;;;;49.03;26.90;;;3.00;99.90;;;;;;5013077;28;20390;-83
2022/03/21 02:38:24;;;;;;;59.33;31.95;;;3.00;99.90;;;;;;4994204;28;20118;-83
2022/03/21 02:40:49;;;;;;;51.15;27.35;;;3.00;99.90;;;;;;5010060;28;20029;-83
2022/03/21 02:43:15;;;;;;;60.50;31.42;;;3.00;99.90;;;;;;4996683;28;20057;-83
2022/03/21 02:45:41;;;;;;;64.47;31.98;;;3.00;99.90;;;;;;4992692;28;20036;-83
2022/03/21 02:48:07;;;;;;;56.10;30.38;;;3.00;99.90;;;;;;4997153;28;20041;-82
2022/03/21 02:50:41;;;;;;;57.20;31.27;;;3.10;99.90;;;;;;4997713;28;20041;-83
2022/03/21 02:53:08;;;;;;;54.88;30.33;;;3.10;99.90;;;;;;4991416;28;20041;-83
2022/03/21 02:55:34;;;;;;;57.78;30.65;;;3.10;99.90;;;;;;4993507;28;20057;-83
2022/03/21 02:58:00;;;;;;;55.83;30.30;;;3.10;99.90;;;;;;4998191;28;20053;-83
2022/03/21 03:00:26;;;;;;;53.92;30.30;;;3.10;99.90;;;;;;5009945;28;20038;-82
2022/03/21 03:02:51;;;;;;;54.70;29.20;;;3.10;99.90;;;;;;4996516;28;20433;-82
2022/03/21 03:05:17;;;;;;;51.53;28.70;;;3.00;99.90;;;;;;4997710;28;20041;-83
2022/03/21 03:07:43;;;;;;;57.63;29.55;;;3.00;99.90;;;;;;5012728;28;20064;-83
2022/03/21 03:10:08;;;;;;;51.63;27.00;;;3.00;99.90;;;;;;4994168;28;20049;-83
2022/03/21 03:12:34;;;;;;;55.20;29.02;;;2.90;99.90;;;;;;4993905;28;20049;-83
2022/03/21 03:15:00;;;;;;;53.78;28.80;;;2.90;99.90;;;;;;4974516;28;20109;-83
2022/03/21 03:17:25;;;;;;;52.75;29.40;;;2.90;99.90;;;;;;5005642;28;20367;-83
2022/03/21 03:19:51;;;;;;;47.60;26.48;;;2.90;99.90;;;;;;4976099;28;20532;-83
2022/03/21 03:22:18;;;;;;;52.63;27.85;;;2.80;99.90;;;;;;4993185;28;20042;-83
2022/03/21 03:24:45;;;;;;;53.45;27.30;;;2.90;99.90;;;;;;4991999;28;20041;-83
2022/03/21 03:27:11;;;;;;;52.83;27.25;;;2.90;99.90;;;;;;4980953;28;20037;-83
2022/03/21 03:29:36;;;;;;;52.60;27.55;;;2.90;99.90;;;;;;4997053;28;20479;-83
2022/03/21 03:32:03;;;;;;;53.38;27.00;;;2.80;99.90;;;;;;4992381;28;20049;-83
2022/03/21 03:34:31;;;;;;;50.97;26.58;;;2.80;99.90;;;;;;5014803;28;20121;-83
2022/03/21 03:36:56;;;;;;;53.15;26.77;;;2.90;99.90;;;;;;5009791;28;20459;-83
2022/03/21 03:39:22;;;;;;;45.00;24.75;;;2.90;99.90;;;;;;4992176;28;20045;-82
2022/03/21 03:41:48;;;;;;;48.83;25.10;;;2.90;99.90;;;;;;4997637;28;20557;-83
2022/03/21 03:44:16;;;;;;;47.13;25.77;;;2.90;99.90;;;;;;4993765;28;20435;-82
2022/03/21 03:46:42;;;;;;;45.05;24.98;;;2.90;99.90;;;;;;4994230;28;20037;-83
2022/03/21 03:49:08;;;;;;;49.47;25.30;;;2.90;99.90;;;;;;4994865;28;20045;-83
2022/03/21 03:51:33;;;;;;;42.33;23.05;;;2.90;99.90;;;;;;4997018;28;20414;-83
2022/03/21 03:53:59;;;;;;;50.53;25.50;;;2.80;99.90;;;;;;5015733;28;20108;-83
2022/03/21 03:56:24;;;;;;;48.60;24.70;;;2.90;99.90;;;;;;5001582;28;20037;-83
2022/03/21 03:58:50;;;;;;;43.63;23.08;;;2.90;99.90;;;;;;4994537;28;20046;-83
2022/03/21 04:01:16;;;;;;;48.90;25.13;;;2.90;99.90;;;;;;5010497;28;20040;-83
2022/03/21 04:03:47;;;;;;;45.22;23.88;;;2.90;99.90;;;;;;4990322;28;20073;-83
2022/03/21 04:06:18;;;;;;;45.25;22.40;;;2.90;99.90;;;;;;4990188;28;20350;-83
2022/03/21 04:08:45;;;;;;;44.22;23.65;;;2.90;99.90;;;;;;5010015;28;20038;-83
2022/03/21 04:11:11;;;;;;;36.75;21.33;;;2.90;99.90;;;;;;4994262;28;20050;-83
2022/03/21 04:13:37;;;;;;;40.60;21.85;;;2.90;99.90;;;;;;4988570;28;20042;-83
2022/03/21 04:16:04;;;;;;;37.08;19.88;;;2.80;99.90;;;;;;5016457;28;20487;-83
2022/03/21 04:18:30;;;;;;;41.83;21.48;;;2.80;99.90;;;;;;4992289;28;20092;-83
2022/03/21 04:20:56;;;;;;;43.65;23.20;;;2.80;99.90;;;;;;4988062;28;20034;-83
2022/03/21 04:23:21;;;;;;;47.70;23.23;;;2.80;99.90;;;;;;5010427;28;20034;-83
2022/03/21 04:25:47;;;;;;;39.10;20.23;;;2.80;99.90;;;;;;4994584;28;20091;-83
2022/03/21 04:28:14;;;;;;;42.38;22.33;;;2.80;99.90;;;;;;4991690;28;20109;-83
2022/03/21 04:30:41;;;;;;;34.88;18.63;;;2.80;99.90;;;;;;4993523;28;20339;-83
2022/03/21 04:33:12;;;;;;;32.85;18.30;;;2.70;99.90;;;;;;4991310;28;20042;-83
2022/03/21 04:35:38;;;;;;;38.22;20.90;;;2.70;99.90;;;;;;5006424;28;20144;-83
2022/03/21 04:38:12;;;;;;;37.60;20.48;;;2.70;99.90;;;;;;4987829;28;20083;-83
2022/03/21 04:40:42;;;;;;;37.10;18.20;;;2.70;99.90;;;;;;4985888;28;20057;-83
2022/03/21 04:43:08;;;;;;;28.05;16.45;;;2.70;99.90;;;;;;5012855;28;20352;-83
2022/03/21 04:45:35;;;;;;;40.65;19.60;;;2.60;99.90;;;;;;4994892;28;20065;-83
2022/03/21 04:48:01;;;;;;;30.58;18.27;;;2.60;99.90;;;;;;4995836;28;20391;-83
2022/03/21 04:50:27;;;;;;;34.10;16.65;;;2.60;99.90;;;;;;5016377;28;20478;-83
2022/03/21 04:52:52;;;;;;;25.95;14.68;;;2.50;99.90;;;;;;4998717;28;20045;-83
2022/03/21 04:55:18;;;;;;;31.90;17.67;;;2.50;99.90;;;;;;5015435;28;20038;-83
2022/03/21 04:57:44;;;;;;;29.30;16.27;;;2.40;99.90;;;;;;5000884;28;20183;-83
2022/03/21 05:00:10;;;;;;;33.20;17.77;;;2.40;99.90;;;;;;4987389;28;20108;-83
2022/03/21 05:02:36;;;;;;;31.98;18.10;;;2.40;99.90;;;;;;5000176;28;20179;-83
2022/03/21 05:05:02;;;;;;;33.42;19.00;;;2.40;99.90;;;;;;4977462;28;20509;-83
2022/03/21 05:07:29;;;;;;;34.90;17.98;;;2.40;99.90;;;;;;5010629;28;20068;-83
2022/03/21 05:09:55;;;;;;;26.75;15.20;;;2.40;99.90;;;;;;5012938;28;20045;-83
2022/03/21 05:12:22;;;;;;;37.40;20.38;;;2.40;99.90;;;;;;4993253;28;20049;-83
2022/03/21 05:14:48;;;;;;;34.25;19.17;;;2.40;99.90;;;;;;4993508;28;20042;-83
2022/03/21 05:17:17;;;;;;;32.40;17.77;;;2.40;99.90;;;;;;4998088;28;20092;-83
2022/03/21 05:19:44;;;;;;;33.83;18.73;;;2.40;99.90;;;;;;5013302;28;20103;-83
2022/03/21 05:22:09;;;;;;;34.03;18.27;;;2.40;99.90;;;;;;5011737;28;20156;-83
2022/03/21 05:35:52;;;;;;;28.45;14.65;;;2.40;99.90;;;;;;4997395;28;20077;-83
2022/03/21 05:38:25;;;;;;;29.30;15.77;;;2.50;99.90;;;;;;4991449;28;20050;-83
2022/03/21 05:40:52;;;;;;;28.80;16.02;;;2.40;99.90;;;;;;5016779;28;20034;-83
2022/03/21 05:43:19;;;;;;;27.15;13.95;;;2.50;99.90;;;;;;4994117;28;20042;-83
2022/03/21 05:45:44;;;;;;;29.85;16.58;;;2.50;99.90;;;;;;5014344;28;20049;-83
2022/03/21 05:50:55;;;;;;;24.90;13.65;;;2.50;99.90;;;;;;4994193;28;20467;-82
2022/03/21 05:53:21;;;;;;;29.58;15.90;;;2.50;99.90;;;;;;4995078;28;20046;-83
2022/03/21 05:55:46;;;;;;;28.92;15.48;;;2.50;99.90;;;;;;5015080;28;20137;-83
2022/03/21 05:58:12;;;;;;;26.08;13.75;;;2.50;99.90;;;;;;5004348;28;20045;-83
2022/03/21 06:00:38;;;;;;;35.78;16.80;;;2.60;99.90;;;;;;5014523;28;20067;-83
2022/03/21 06:03:04;;;;;;;36.45;16.65;;;2.60;99.90;;;;;;5011484;28;20037;-82
2022/03/21 06:05:30;;;;;;;29.00;15.82;;;2.60;99.90;;;;;;4990638;28;20461;-83
2022/03/21 06:07:56;;;;;;;32.55;17.42;;;2.70;99.90;;;;;;5010057;28;20033;-82
2022/03/21 06:10:22;;;;;;;30.85;16.52;;;2.70;99.90;;;;;;4976501;28;20132;-83
2022/03/21 06:12:49;;;;;;;34.42;18.65;;;2.70;99.90;;;;;;5011661;28;20083;-83
2022/03/21 06:15:15;;;;;;;30.15;16.85;;;2.70;99.90;;;;;;4995114;28;20105;-83
2022/03/21 06:17:43;;;;;;;32.45;17.02;;;2.80;99.90;;;;;;4988513;28;20068;-83
2022/03/21 06:20:11;;;;;;;37.70;18.95;;;2.80;99.90;;;;;;4993621;28;20040;-84
2022/03/21 06:22:37;;;;;;;33.08;17.23;;;2.80;99.90;;;;;;4996318;28;20033;-83
2022/03/21 06:25:03;;;;;;;31.75;17.83;;;2.80;99.90;;;;;;4987760;28;20038;-83
2022/03/21 06:27:29;;;;;;;32.42;16.98;;;2.90;99.90;;;;;;4975432;28;20052;-83
2022/03/21 06:29:55;;;;;;;34.17;17.67;;;2.90;99.90;;;;;;5012784;28;20117;-83
2022/03/21 06:32:21;;;;;;;32.08;17.52;;;2.90;99.90;;;;;;4974732;28;20041;-83
2022/03/21 06:34:47;;;;;;;29.55;16.08;;;2.90;99.90;;;;;;5010147;28;20117;-83
2022/03/21 06:37:13;;;;;;;30.58;17.23;;;3.00;99.90;;;;;;4991941;28;20081;-83
2022/03/21 06:39:38;;;;;;;27.60;14.20;;;3.00;99.90;;;;;;5011814;28;20068;-83
2022/03/21 06:42:05;;;;;;;32.05;17.00;;;3.10;99.90;;;;;;5008950;28;20056;-83
2022/03/21 06:44:31;;;;;;;29.35;16.60;;;3.10;99.90;;;;;;5015056;28;20084;-82
2022/03/21 06:46:58;;;;;;;29.13;16.40;;;3.10;99.90;;;;;;5010374;28;20151;-82
2022/03/21 06:49:29;;;;;;;27.00;14.88;;;3.20;99.90;;;;;;5002920;28;20030;-83
2022/03/21 06:51:56;;;;;;;27.77;15.87;;;3.20;99.90;;;;;;5001488;28;20041;-83
2022/03/21 06:54:22;;;;;;;30.27;16.08;;;3.20;99.90;;;;;;5025969;28;20037;-83
2022/03/21 06:56:47;;;;;;;32.65;17.42;;;3.30;99.90;;;;;;5030789;28;20167;-83
2022/03/21 06:59:13;;;;;;;32.20;16.70;;;3.40;99.90;;;;;;5002464;28;20559;-83
2022/03/21 07:01:39;;;;;;;30.92;16.85;;;3.40;99.90;;;;;;5009534;28;20048;-83
2022/03/21 07:04:05;;;;;;;31.08;16.33;;;3.40;99.90;;;;;;5029255;28;20084;-83
2022/03/21 07:06:30;;;;;;;34.47;17.77;;;3.50;99.90;;;;;;5006906;28;20049;-84
2022/03/21 07:08:56;;;;;;;34.92;17.80;;;3.60;99.90;;;;;;5013295;28;20372;-83
2022/03/21 07:11:22;;;;;;;28.92;15.07;;;3.70;99.90;;;;;;5009135;28;20033;-83
2022/03/21 07:13:48;;;;;;;26.65;15.95;;;3.70;99.90;;;;;;5011526;28;20387;-84
2022/03/21 07:16:16;;;;;;;34.50;17.65;;;3.80;99.90;;;;;;5013080;28;20038;-83
2022/03/21 07:18:42;;;;;;;34.00;18.17;;;3.80;99.90;;;;;;5008697;28;20033;-83
2022/03/21 07:21:08;;;;;;;29.10;16.58;;;3.90;99.90;;;;;;5010210;28;20406;-83
2022/03/21 07:23:34;;;;;;;29.23;17.17;;;3.90;99.90;;;;;;5009245;28;20423;-83
2022/03/21 07:26:01;;;;;;;26.02;15.85;;;4.00;99.90;;;;;;5008660;28;20038;-83
2022/03/21 07:28:26;;;;;;;29.58;15.00;;;4.10;99.90;;;;;;5009900;28;20089;-84
2022/03/21 07:30:52;;;;;;;27.77;15.65;;;4.10;99.90;;;;;;5011817;28;20073;-82
2022/03/21 07:33:18;;;;;;;32.30;16.75;;;4.20;99.90;;;;;;5001264;28;20140;-82
2022/03/21 07:35:44;;;;;;;29.48;17.35;;;4.30;99.90;;;;;;5003102;28;20050;-83
2022/03/21 07:38:10;;;;;;;36.58;19.13;;;4.40;99.90;;;;;;5012412;28;20109;-83
2022/03/21 07:40:36;;;;;;;32.35;18.27;;;4.50;99.90;;;;;;4988877;28;20569;-84
2022/03/21 07:43:02;;;;;;;29.00;16.80;;;4.50;99.90;;;;;;5006429;28;20042;-84
2022/03/21 07:48:12;;;;;;;28.90;16.98;;;4.70;99.90;;;;;;5003722;28;20077;-84
2022/03/21 07:50:38;;;;;;;28.83;15.77;;;4.90;99.90;;;;;;5003705;28;20381;-84
2022/03/21 07:53:04;;;;;;;30.83;16.33;;;4.90;99.90;;;;;;5010442;28;20064;-84
2022/03/21 07:55:33;;;;;;;26.85;16.25;;;5.00;99.90;;;;;;5002515;28;20596;-83
2022/03/21 07:58:00;;;;;;;30.20;17.23;;;5.10;99.90;;;;;;5007901;28;20124;-83
2022/03/21 08:00:27;;;;;;;28.23;16.23;;;5.20;99.90;;;;;;4975075;28;20548;-83
2022/03/21 08:02:53;;;;;;;30.70;17.75;;;5.30;99.90;;;;;;5007852;28;20498;-83
2022/03/21 08:05:19;;;;;;;31.92;16.95;;;5.40;99.90;;;;;;5008475;28;20049;-84
2022/03/21 08:07:45;;;;;;;25.50;14.68;;;5.50;99.90;;;;;;5007683;28;20069;-84
2022/03/21 08:10:11;;;;;;;28.25;15.75;;;5.60;99.90;;;;;;5006064;28;20058;-83
2022/03/21 08:12:42;;;;;;;25.30;14.77;;;5.70;99.90;;;;;;5015879;28;20045;-83
2022/03/21 08:15:11;;;;;;;25.33;14.75;;;5.90;99.90;;;;;;5008135;28;20095;-83
2022/03/21 08:18:00;;;;;;;27.17;15.70;;;6.00;99.90;;;;;;5009129;28;20050;-83
2022/03/21 08:20:34;;;;;;;25.90;13.60;;;6.10;99.90;;;;;;5008804;28;20053;-84
2022/03/21 08:23:06;;;;;;;26.05;13.98;;;6.20;99.90;;;;;;5014919;28;20033;-82
2022/03/21 08:25:33;;;;;;;24.63;14.15;;;6.30;99.90;;;;;;5009929;28;20406;-83
2022/03/21 08:27:59;;;;;;;20.63;12.32;;;6.40;99.90;;;;;;5013420;28;20038;-83
2022/03/21 08:30:27;;;;;;;25.10;13.57;;;6.50;99.90;;;;;;5009384;28;20056;-84
2022/03/21 08:32:52;;;;;;;23.38;12.88;;;6.60;99.90;;;;;;4992079;28;20474;-85
2022/03/21 08:35:19;;;;;;;20.23;12.50;;;6.70;99.90;;;;;;4995952;28;20139;-84
2022/03/21 08:37:46;;;;;;;23.38;12.40;;;6.80;99.90;;;;;;5009705;28;20048;-83
2022/03/21 08:40:12;;;;;;;20.45;11.68;;;7.00;99.90;;;;;;5006570;28;20150;-84
2022/03/21 08:42:39;;;;;;;22.05;11.25;;;7.10;99.90;;;;;;5006415;28;20037;-83
2022/03/21 08:45:06;;;;;;;20.40;12.18;;;7.20;99.90;;;;;;5011677;28;20491;-83
2022/03/21 08:47:31;;;;;;;21.42;12.00;;;7.40;99.90;;;;;;5017679;28;20453;-83
2022/03/21 08:49:57;;;;;;;23.23;12.73;;;7.50;99.90;;;;;;5008940;28;20037;-83
2022/03/21 08:52:22;;;;;;;19.60;11.40;;;7.50;99.90;;;;;;5010896;28;20042;-85
2022/03/21 08:54:48;;;;;;;22.13;11.88;;;7.60;99.90;;;;;;5010507;28;20046;-83
2022/03/21 08:57:14;;;;;;;24.83;12.68;;;7.70;99.90;;;;;;5010033;28;20053;-83
2022/03/21 08:59:39;;;;;;;20.13;11.88;;;7.80;99.90;;;;;;5017851;28;20113;-83
2022/03/21 09:02:06;;;;;;;21.23;11.77;;;7.90;99.90;;;;;;5012738;28;20084;-83
2022/03/21 09:04:31;;;;;;;23.23;12.18;;;8.00;99.90;;;;;;5015864;28;20069;-83
2022/03/21 09:06:57;;;;;;;18.63;10.68;;;8.10;99.90;;;;;;5012472;28;20092;-83
2022/03/21 09:09:22;;;;;;;21.55;11.27;;;8.20;99.90;;;;;;4995779;28;20042;-84
2022/03/21 09:11:48;;;;;;;18.48;11.52;;;8.30;99.90;;;;;;5011207;28;20402;-83
2022/03/21 09:14:15;;;;;;;21.77;11.60;;;8.40;99.90;;;;;;5009731;28;20806;-83
2022/03/21 09:16:43;;;;;;;20.35;11.70;;;8.50;99.90;;;;;;4996271;28;20063;-83
2022/03/21 09:19:10;;;;;;;21.75;12.23;;;8.60;99.90;;;;;;5013343;28;20172;-83
2022/03/21 09:21:37;;;;;;;20.42;12.15;;;8.70;99.90;;;;;;5011754;28;20034;-83
2022/03/21 09:24:03;;;;;;;20.40;11.13;;;8.80;99.90;;;;;;5012655;28;20033;-83
2022/03/21 09:26:29;;;;;;;18.70;11.40;;;9.00;99.90;;;;;;5012489;28;21063;-84
2022/03/21 09:29:03;;;;;;;18.67;11.52;;;9.10;99.90;;;;;;5026486;28;20120;-84
2022/03/21 09:31:29;;;;;;;20.58;11.93;;;9.20;99.90;;;;;;5010168;28;20050;-84
2022/03/21 09:33:55;;;;;;;21.90;11.38;;;9.30;99.90;;;;;;5017971;28;20732;-83
2022/03/21 09:36:21;;;;;;;21.75;11.63;;;9.40;99.90;;;;;;5016648;28;21184;-83
2022/03/21 09:38:47;;;;;;;22.95;11.45;;;9.50;99.90;;;;;;5018785;28;20394;-84
2022/03/21 09:41:13;;;;;;;17.33;10.93;;;9.70;99.90;;;;;;5004422;28;20117;-83
2022/03/21 09:43:39;;;;;;;18.20;11.30;;;9.70;99.90;;;;;;4994623;28;20121;-84
2022/03/21 09:46:07;;;;;;;18.33;11.45;;;9.80;99.90;;;;;;5011205;28;20577;-84
2022/03/21 09:48:34;;;;;;;21.90;11.95;;;10.00;99.90;;;;;;5011610;28;20044;-84
2022/03/21 09:51:02;;;;;;;18.27;10.65;;;10.10;99.90;;;;;;5009163;28;20478;-83
2022/03/21 09:53:28;;;;;;;18.45;12.32;;;10.20;99.90;;;;;;4989590;28;20506;-83
2022/03/21 09:55:54;;;;;;;17.95;11.27;;;10.20;99.90;;;;;;5003703;28;20064;-83
2022/03/21 09:58:20;;;;;;;20.38;10.82;;;10.30;99.90;;;;;;5012813;28;20398;-83
2022/03/21 10:00:48;;;;;;;19.85;10.85;;;10.40;99.90;;;;;;5011244;28;20041;-83
2022/03/21 10:03:14;;;;;;;20.23;11.18;;;10.50;99.90;;;;;;5017719;28;20426;-83
2022/03/21 10:05:43;;;;;;;20.25;12.02;;;10.50;99.90;;;;;;5021340;28;20038;-84
2022/03/21 10:08:10;;;;;;;19.20;11.77;;;10.60;99.90;;;;;;5043063;28;20087;-84
2022/03/21 10:10:36;;;;;;;18.85;11.20;;;10.70;99.90;;;;;;5019153;28;20508;-84
2022/03/21 10:13:03;;;;;;;18.58;12.10;;;10.80;99.90;;;;;;5037710;28;20043;-84
2022/03/21 10:15:29;;;;;;;22.27;12.32;;;10.80;99.90;;;;;;5009278;28;20048;-83
2022/03/21 10:18:09;;;;;;;20.35;11.60;;;10.90;99.90;;;;;;5014684;28;20041;-84
2022/03/21 10:20:37;;;;;;;21.90;12.60;;;10.90;99.90;;;;;;5011961;28;20033;-83
2022/03/21 10:23:24;;;;;;;18.13;11.85;;;11.00;99.90;;;;;;5017855;28;20088;-84
2022/03/21 10:25:51;;;;;;;18.88;12.23;;;11.10;99.90;;;;;;5019820;28;20474;-84
2022/03/21 10:28:37;;;;;;;16.02;11.05;;;11.20;99.90;;;;;;5007319;28;20124;-83
2022/03/21 10:31:04;;;;;;;15.93;10.82;;;11.30;99.90;;;;;;5001267;28;20052;-83
2022/03/21 10:33:30;;;;;;;19.17;12.02;;;11.40;99.90;;;;;;4990253;28;20041;-83
2022/03/21 10:36:02;;;;;;;17.67;12.27;;;11.50;99.90;;;;;;5028326;28;20533;-83
2022/03/21 10:38:30;;;;;;;17.63;11.07;;;11.70;99.90;;;;;;5031402;28;20072;-83
2022/03/21 10:40:56;;;;;;;18.40;11.88;;;11.70;99.90;;;;;;5010864;28;20065;-83
2022/03/21 10:43:22;;;;;;;18.77;11.90;;;11.80;99.90;;;;;;5034578;28;20391;-83
2022/03/21 10:45:52;;;;;;;20.33;12.50;;;11.80;99.90;;;;;;5015854;28;20025;-84
2022/03/21 10:48:19;;;;;;;19.42;11.40;;;11.90;99.90;;;;;;5027748;28;20069;-84
2022/03/21 10:50:47;;;;;;;19.60;11.60;;;12.00;99.90;;;;;;4993140;28;20041;-83
2022/03/21 10:53:25;;;;;;;20.52;11.90;;;12.10;99.90;;;;;;5030837;28;20060;-83
2022/03/21 10:56:01;;;;;;;15.32;10.32;;;12.10;99.90;;;;;;5035471;28;20033;-83
2022/03/21 10:58:41;;;;;;;19.95;11.65;;;12.20;99.90;;;;;;5013910;28;20045;-84
2022/03/21 11:01:09;;;;;;;17.38;10.57;;;12.30;99.90;;;;;;5033542;28;20037;-84
2022/03/21 11:03:40;;;;;;;17.52;11.02;;;12.40;99.70;;;;;;5035299;28;20037;-84
2022/03/21 11:06:09;;;;;;;22.05;10.55;;;12.50;99.00;;;;;;5005338;28;20054;-84
2022/03/21 11:08:36;;;;;;;18.30;10.95;;;12.60;99.20;;;;;;5004344;28;20045;-83
2022/03/21 11:11:03;;;;;;;17.35;11.55;;;12.70;99.00;;;;;;5029613;28;20073;-83
2022/03/21 11:13:30;;;;;;;18.65;11.40;;;12.80;98.70;;;;;;4996041;28;20494;-83
2022/03/21 11:15:56;;;;;;;16.80;11.73;;;12.80;98.20;;;;;;5009062;28;20486;-83
2022/03/21 11:18:23;;;;;;;19.52;12.30;;;12.90;97.60;;;;;;5007679;28;20061;-83
2022/03/21 11:20:49;;;;;;;17.33;10.70;;;12.90;97.20;;;;;;5004220;28;20061;-84
2022/03/21 11:23:15;;;;;;;19.60;11.68;;;13.00;97.50;;;;;;5012627;28;20124;-83
2022/03/21 11:25:51;;;;;;;20.25;13.05;;;13.10;97.40;;;;;;5010549;28;20408;-83
2022/03/21 11:28:44;;;;;;;14.65;10.60;;;13.30;96.10;;;;;;5010238;28;20040;-83
2022/03/21 11:31:19;;;;;;;17.98;12.02;;;13.40;93.90;;;;;;5003491;28;20042;-83
2022/03/21 11:34:10;;;;;;;17.45;11.50;;;13.40;94.20;;;;;;5006744;28;20038;-83
2022/03/21 11:36:56;;;;;;;16.40;10.68;;;13.50;89.80;;;;;;5009238;28;20060;-82
2022/03/21 11:39:23;;;;;;;19.15;10.48;;;13.50;86.50;;;;;;5005791;28;20470;-83
2022/03/21 11:41:55;;;;;;;19.13;11.73;;;13.60;83.70;;;;;;5016238;28;20487;-83
2022/03/21 11:44:21;;;;;;;16.80;10.88;;;13.60;81.30;;;;;;5009971;28;20045;-83
2022/03/21 11:46:47;;;;;;;16.95;11.55;;;13.80;83.50;;;;;;4984989;28;20391;-84
2022/03/21 11:49:22;;;;;;;16.77;10.93;;;13.90;82.70;;;;;;5011199;28;20533;-83
2022/03/21 11:51:58;;;;;;;15.85;10.20;;;14.10;76.10;;;;;;4988798;28;20041;-83
2022/03/21 11:54:25;;;;;;;19.98;11.13;;;14.20;77.10;;;;;;5014017;28;20034;-83
2022/03/21 11:56:53;;;;;;;15.93;10.48;;;14.30;72.80;;;;;;5008112;28;20567;-83
2022/03/21 11:59:34;;;;;;;21.90;11.50;;;14.30;73.20;;;;;;4991291;28;20042;-84
2022/03/21 12:02:01;;;;;;;20.05;12.00;;;14.40;72.00;;;;;;5012841;28;20099;-84
2022/03/21 12:04:30;;;;;;;17.35;11.25;;;14.50;72.60;;;;;;5009424;28;20046;-84
2022/03/21 12:07:14;;;;;;;20.08;12.40;;;14.70;72.20;;;;;;5003780;28;20589;-83
2022/03/21 12:09:56;;;;;;;17.48;9.88;;;14.90;72.50;;;;;;5013474;28;20061;-83
2022/03/21 12:12:43;;;;;;;16.40;11.10;;;15.00;67.20;;;;;;5009619;28;20486;-83
2022/03/21 12:15:30;;;;;;;16.75;10.70;;;15.00;65.60;;;;;;5004953;28;20037;-83
2022/03/21 12:17:56;;;;;;;15.73;10.07;;;15.10;67.00;;;;;;5009511;28;20052;-84
2022/03/21 12:20:23;;;;;;;18.52;10.70;;;15.30;68.40;;;;;;5008955;28;20105;-84
2022/03/21 12:22:49;;;;;;;17.10;11.18;;;15.50;67.20;;;;;;5009287;28;20451;-83
2022/03/21 12:25:29;;;;;;;17.35;11.00;;;15.70;66.30;;;;;;4993965;28;20765;-83
2022/03/21 12:27:56;;;;;;;15.13;10.88;;;15.90;64.70;;;;;;4997030;28;20406;-84
2022/03/21 12:30:23;;;;;;;18.02;10.02;;;16.10;62.90;;;;;;5011911;28;20046;-84
2022/03/21 12:32:54;;;;;;;19.55;11.07;;;16.20;60.50;;;;;;5019849;28;20045;-83
2022/03/21 12:35:31;;;;;;;17.20;10.27;;;16.30;56.20;;;;;;5004992;28;20045;-84
2022/03/21 12:38:24;;;;;;;18.02;10.90;;;16.60;54.50;;;;;;5010609;28;20045;-84
2022/03/21 12:40:59;;;;;;;15.88;9.52;;;17.00;51.70;;;;;;5004520;28;20082;-84
2022/03/21 12:43:39;;;;;;;19.55;10.57;;;17.50;53.30;;;;;;5007895;28;20033;-84
2022/03/21 12:46:06;;;;;;;17.65;10.18;;;17.60;49.10;;;;;;5008350;28;20058;-84
2022/03/21 12:48:34;;;;;;;16.00;9.73;;;17.80;49.20;;;;;;5017258;28;20076;-83
2022/03/21 12:51:00;;;;;;;19.70;11.43;;;18.10;48.80;;;;;;5010616;28;20088;-83
2022/03/21 12:53:45;;;;;;;17.13;10.82;;;18.40;48.70;;;;;;5012976;28;20124;-84
2022/03/21 12:56:16;;;;;;;17.38;10.52;;;18.90;48.20;;;;;;4999046;28;20049;-84
2022/03/21 12:58:45;;;;;;;17.80;10.93;;;19.40;46.60;;;;;;5007381;28;20073;-84